Airport View

Enter AWOS ICAO identifier for current METAR.

ex. KFNL

KUCY 261200Z AUTO 19004KT 10SM CLR 24/23 A3011 RMK A01

26 Jun 2019 12:20

Frequency: 135.325

Phone: 731-885-9161

Other Area AWOS: KPHT - KM25 - KDYR - KHZD

TAF KPAH 261120Z 2612/2712 VRB02KT P6SM BCFG SCT250 FM261400 20008KT P6SM SCT035 FM261800 20009KT P6SM VCTS SCT040CB SCT250 FM270100 VRB03KT P6SM SCT250